Time;durP1;ratioP1;P1;durP2;ratioP2;P2;SDS_P1;SDS_P2;PMS_P1;PMS_P2;Temp;Humidity;BMP_temperature;BMP_pressure;BME280_temperature;BME280_humidity;BME280_pressure;Samples;Min_cycle;Max_cycle;Signal;HPM_P1;HPM_P2
2023/06/17 00:01:01;;;;;;;16.75;12.70;;;17.10;99.90;;;;;;5047305;28;20041;-58
2023/06/17 00:03:27;;;;;;;15.25;9.13;;;17.10;99.90;;;;;;5051429;28;20036;-58
2023/06/17 00:05:53;;;;;;;19.58;12.25;;;17.10;99.90;;;;;;5063024;28;20051;-57
2023/06/17 00:08:19;;;;;;;17.77;10.80;;;17.20;99.90;;;;;;5054201;28;20087;-58
2023/06/17 00:10:45;;;;;;;17.17;10.48;;;17.30;99.90;;;;;;5069541;28;20150;-58
2023/06/17 00:13:10;;;;;;;11.90;8.70;;;17.20;99.90;;;;;;5067948;28;20454;-58
2023/06/17 00:15:36;;;;;;;16.02;11.38;;;17.30;99.90;;;;;;5071770;28;20498;-57
2023/06/17 00:18:05;;;;;;;16.75;12.45;;;17.30;99.90;;;;;;5071616;28;20079;-58
2023/06/17 00:20:30;;;;;;;9.45;7.10;;;17.40;99.90;;;;;;5071463;28;20045;-57
2023/06/17 00:22:56;;;;;;;28.45;13.18;;;17.40;99.90;;;;;;5071419;28;20383;-57
2023/06/17 00:25:22;;;;;;;20.05;12.38;;;17.50;99.90;;;;;;5071350;28;20147;-58
2023/06/17 00:27:47;;;;;;;13.15;10.02;;;17.40;99.90;;;;;;5050599;28;20133;-57
2023/06/17 00:30:13;;;;;;;20.40;13.52;;;17.50;99.90;;;;;;5068353;28;20036;-58
2023/06/17 00:32:40;;;;;;;15.55;12.13;;;17.50;99.90;;;;;;5071659;28;20139;-58
2023/06/17 00:35:06;;;;;;;15.75;12.25;;;17.50;99.90;;;;;;5071472;28;20036;-58
2023/06/17 00:37:32;;;;;;;17.38;11.32;;;17.40;99.90;;;;;;5053738;28;20468;-58
2023/06/17 00:39:58;;;;;;;13.45;11.60;;;17.50;99.90;;;;;;5071093;28;20612;-58
2023/06/17 00:42:24;;;;;;;15.75;9.90;;;17.50;99.90;;;;;;5075511;28;20040;-60
2023/06/17 00:44:49;;;;;;;18.42;12.45;;;17.40;99.90;;;;;;5072442;28;20055;-61
2023/06/17 00:47:15;;;;;;;17.05;12.25;;;17.40;99.90;;;;;;5062359;28;20116;-61
2023/06/17 00:49:44;;;;;;;19.25;14.25;;;17.40;99.90;;;;;;5075798;28;20037;-61
2023/06/17 00:52:12;;;;;;;17.48;10.75;;;17.50;99.90;;;;;;5091460;28;20051;-61
2023/06/17 00:54:40;;;;;;;14.90;12.30;;;17.50;99.90;;;;;;5075665;28;20045;-61
2023/06/17 00:57:14;;;;;;;16.20;11.30;;;17.50;99.90;;;;;;5075765;28;20079;-61
2023/06/17 00:59:42;;;;;;;18.38;13.07;;;17.40;99.90;;;;;;5075973;28;20090;-61
2023/06/17 01:02:09;;;;;;;17.60;12.80;;;17.40;99.90;;;;;;5073020;28;20123;-61
2023/06/17 01:04:43;;;;;;;17.10;10.95;;;17.40;99.90;;;;;;5075639;28;20032;-61
2023/06/17 01:07:30;;;;;;;15.23;10.93;;;17.40;99.90;;;;;;5064877;28;20090;-60
2023/06/17 01:10:10;;;;;;;19.40;14.25;;;17.40;99.90;;;;;;5073317;28;20039;-61
2023/06/17 01:12:37;;;;;;;9.63;7.57;;;17.40;99.90;;;;;;5075197;28;20083;-60
2023/06/17 01:15:03;;;;;;;16.83;12.77;;;17.50;99.90;;;;;;5075384;28;20040;-61
2023/06/17 01:17:29;;;;;;;17.63;13.38;;;17.50;99.90;;;;;;5056855;28;20123;-60
2023/06/17 01:19:56;;;;;;;21.50;14.30;;;17.40;99.90;;;;;;5065409;28;20483;-61
2023/06/17 01:22:23;;;;;;;23.15;13.80;;;17.40;99.90;;;;;;5075693;28;20107;-60
2023/06/17 01:24:49;;;;;;;20.25;12.90;;;17.40;99.90;;;;;;5074841;28;20421;-61
2023/06/17 01:27:15;;;;;;;23.63;14.98;;;17.40;99.90;;;;;;5075461;28;20037;-61
2023/06/17 01:29:41;;;;;;;16.38;13.32;;;17.40;99.90;;;;;;5057032;28;20040;-60
2023/06/17 01:32:07;;;;;;;17.55;13.40;;;17.40;99.90;;;;;;5090893;28;20059;-61
2023/06/17 01:34:36;;;;;;;18.90;13.75;;;17.30;99.90;;;;;;5057221;28;20436;-61
2023/06/17 01:37:08;;;;;;;9.93;8.00;;;17.30;99.90;;;;;;5065193;28;20044;-61
2023/06/17 01:39:37;;;;;;;14.85;12.35;;;17.30;99.90;;;;;;5057116;28;20072;-60
2023/06/17 01:42:09;;;;;;;19.80;14.00;;;17.30;99.90;;;;;;5075055;28;20040;-61
2023/06/17 01:44:36;;;;;;;24.65;15.07;;;17.30;99.90;;;;;;5075072;28;20044;-61
2023/06/17 01:47:03;;;;;;;22.95;14.57;;;17.30;99.90;;;;;;5065486;28;20043;-61
2023/06/17 01:49:28;;;;;;;21.92;14.23;;;17.20;99.90;;;;;;5074736;28;20523;-61
2023/06/17 01:51:54;;;;;;;12.95;10.10;;;17.30;99.90;;;;;;5074240;28;20127;-61
2023/06/17 01:54:20;;;;;;;21.25;14.32;;;17.30;99.90;;;;;;5047637;28;20041;-61
2023/06/17 01:56:46;;;;;;;18.20;12.68;;;17.30;99.90;;;;;;5074851;28;20076;-61
2023/06/17 01:59:12;;;;;;;24.92;15.68;;;17.30;99.90;;;;;;5056495;28;20551;-60
2023/06/17 02:01:37;;;;;;;22.52;15.68;;;17.30;99.90;;;;;;5074283;28;20123;-61
2023/06/17 02:04:03;;;;;;;22.15;13.95;;;17.20;99.90;;;;;;5045825;28;20083;-61
2023/06/17 02:06:28;;;;;;;15.55;13.57;;;17.20;99.90;;;;;;5071053;28;20033;-61
2023/06/17 02:08:55;;;;;;;19.50;12.55;;;17.20;99.90;;;;;;5074470;28;20402;-61
2023/06/17 02:11:21;;;;;;;17.67;13.82;;;17.20;99.90;;;;;;5041949;28;20907;-61
2023/06/17 02:13:47;;;;;;;11.23;9.48;;;17.20;99.90;;;;;;5066958;28;20041;-60
2023/06/17 02:16:12;;;;;;;29.58;16.70;;;17.20;99.90;;;;;;5067904;28;20037;-61
2023/06/17 02:18:39;;;;;;;17.95;15.98;;;17.20;99.90;;;;;;5089934;28;20465;-61
2023/06/17 02:21:05;;;;;;;26.65;16.45;;;17.10;99.90;;;;;;5074404;28;20047;-62
2023/06/17 02:23:30;;;;;;;17.83;14.00;;;17.10;99.90;;;;;;5059840;28;20036;-60
2023/06/17 02:25:57;;;;;;;22.50;16.75;;;17.10;99.90;;;;;;5069433;28;20060;-61
2023/06/17 02:28:22;;;;;;;21.70;15.65;;;17.10;99.90;;;;;;5051727;28;20498;-61
2023/06/17 02:30:48;;;;;;;16.60;12.18;;;17.00;99.90;;;;;;5053827;28;20045;-61
2023/06/17 02:33:17;;;;;;;22.33;16.98;;;17.00;99.90;;;;;;5053832;28;20037;-61
2023/06/17 02:35:44;;;;;;;20.52;14.90;;;16.90;99.90;;;;;;5054030;28;20064;-60
2023/06/17 02:38:10;;;;;;;16.67;13.77;;;16.90;99.90;;;;;;5053849;28;20041;-61
2023/06/17 02:40:36;;;;;;;20.50;14.85;;;16.90;99.90;;;;;;5053976;28;20048;-60
2023/06/17 02:43:01;;;;;;;16.65;13.05;;;16.90;99.90;;;;;;5054029;28;20109;-61
2023/06/17 02:45:27;;;;;;;24.02;17.42;;;17.00;99.90;;;;;;5045859;28;20037;-60
2023/06/17 02:47:53;;;;;;;19.35;14.95;;;17.00;99.90;;;;;;5036306;28;20040;-61
2023/06/17 02:50:23;;;;;;;23.05;17.15;;;17.00;99.90;;;;;;5053839;28;20040;-61
2023/06/17 02:52:55;;;;;;;22.70;17.30;;;17.00;99.90;;;;;;5053881;28;20114;-61
2023/06/17 02:55:21;;;;;;;26.25;18.63;;;17.00;99.90;;;;;;5053089;28;20045;-60
2023/06/17 02:57:47;;;;;;;26.65;18.95;;;16.90;99.90;;;;;;5053439;28;20041;-60
2023/06/17 03:00:13;;;;;;;23.60;17.27;;;16.80;99.90;;;;;;5035424;28;20044;-60
2023/06/17 03:02:39;;;;;;;25.77;17.65;;;16.80;99.90;;;;;;5052702;28;20033;-61
2023/06/17 03:05:06;;;;;;;24.65;14.80;;;16.90;99.90;;;;;;5053621;28;20107;-61
2023/06/17 03:07:35;;;;;;;15.93;12.75;;;16.80;99.90;;;;;;5053215;28;20045;-61
2023/06/17 03:10:05;;;;;;;36.03;16.23;;;16.90;99.90;;;;;;5053616;28;20131;-60
2023/06/17 03:12:30;;;;;;;19.20;15.13;;;17.00;99.90;;;;;;5053036;28;20045;-61
2023/06/17 03:14:57;;;;;;;22.38;16.42;;;17.00;99.90;;;;;;5053563;28;20048;-60
2023/06/17 03:17:24;;;;;;;23.35;15.88;;;17.00;99.90;;;;;;5052882;28;20043;-61
2023/06/17 03:19:51;;;;;;;21.17;15.18;;;16.90;99.90;;;;;;5051826;28;20558;-61
2023/06/17 03:22:16;;;;;;;13.82;12.07;;;16.90;99.90;;;;;;5053349;28;20048;-61
2023/06/17 03:24:42;;;;;;;21.30;16.25;;;16.90;99.90;;;;;;5052587;28;20414;-60
2023/06/17 03:27:08;;;;;;;17.00;14.93;;;17.00;99.90;;;;;;5053095;28;20090;-61
2023/06/17 03:29:36;;;;;;;18.90;15.43;;;17.00;99.90;;;;;;5053056;28;20045;-61
2023/06/17 03:32:02;;;;;;;22.10;15.57;;;16.90;99.90;;;;;;5052898;28;20143;-61
2023/06/17 03:34:28;;;;;;;19.90;16.05;;;16.90;99.90;;;;;;5053079;28;20127;-61
2023/06/17 03:36:56;;;;;;;26.05;18.83;;;16.90;99.90;;;;;;5052585;28;20040;-61
2023/06/17 03:39:22;;;;;;;23.75;16.40;;;16.80;99.90;;;;;;5052863;28;20112;-60
2023/06/17 03:41:48;;;;;;;20.88;18.00;;;16.80;99.90;;;;;;5072696;28;20116;-60
2023/06/17 03:44:13;;;;;;;23.30;16.52;;;16.70;99.90;;;;;;5067813;28;20033;-60
2023/06/17 03:46:39;;;;;;;21.88;17.65;;;16.70;99.90;;;;;;5052529;28;20427;-61
2023/06/17 03:49:05;;;;;;;23.38;16.73;;;16.70;99.90;;;;;;5054555;28;20045;-61
2023/06/17 03:51:31;;;;;;;31.38;18.95;;;16.70;99.90;;;;;;5070673;28;20048;-60
2023/06/17 03:53:56;;;;;;;17.88;14.43;;;16.70;99.90;;;;;;5059358;28;20044;-61
2023/06/17 03:56:22;;;;;;;22.67;17.02;;;16.70;99.90;;;;;;5072669;28;20041;-61
2023/06/17 03:58:48;;;;;;;18.42;14.40;;;16.70;99.90;;;;;;5072387;28;20119;-61
2023/06/17 04:01:14;;;;;;;12.40;10.73;;;16.90;99.90;;;;;;5072451;28;20538;-61
2023/06/17 04:03:41;;;;;;;18.80;12.80;;;16.90;99.90;;;;;;5060583;28;20390;-60
2023/06/17 04:06:08;;;;;;;20.25;13.82;;;16.90;99.90;;;;;;5070533;28;20043;-60
2023/06/17 04:08:35;;;;;;;19.15;13.82;;;16.90;99.90;;;;;;5054811;28;20065;-61
2023/06/17 04:11:02;;;;;;;16.10;12.73;;;17.00;99.90;;;;;;5068317;28;20115;-61
2023/06/17 04:13:27;;;;;;;13.20;10.13;;;17.00;99.90;;;;;;5043695;28;20081;-60
2023/06/17 04:15:53;;;;;;;17.88;12.77;;;17.00;99.90;;;;;;5071686;28;20135;-60
2023/06/17 04:18:19;;;;;;;16.85;12.73;;;17.00;99.90;;;;;;5058222;28;20044;-61
2023/06/17 04:20:44;;;;;;;21.17;13.68;;;17.00;99.90;;;;;;5076255;28;20049;-61
2023/06/17 04:23:10;;;;;;;16.73;11.60;;;17.00;99.90;;;;;;5076457;28;20029;-61
2023/06/17 04:25:36;;;;;;;24.98;14.73;;;17.00;99.90;;;;;;5062705;28;20538;-61
2023/06/17 04:28:07;;;;;;;22.30;14.75;;;17.00;99.90;;;;;;5074680;28;20394;-61
2023/06/17 04:30:33;;;;;;;22.60;14.73;;;17.00;99.90;;;;;;5076310;28;20045;-61
2023/06/17 04:33:00;;;;;;;17.83;14.40;;;17.00;99.90;;;;;;5076302;28;20037;-61
2023/06/17 04:35:26;;;;;;;19.65;13.88;;;17.00;99.90;;;;;;5066648;28;20037;-61
2023/06/17 04:37:56;;;;;;;21.13;15.15;;;16.90;99.90;;;;;;5056187;28;20098;-61
2023/06/17 04:40:25;;;;;;;21.08;14.90;;;17.00;99.90;;;;;;5056329;28;20090;-61
2023/06/17 04:42:52;;;;;;;17.88;13.35;;;16.90;99.90;;;;;;5054239;28;20071;-61
2023/06/17 04:45:18;;;;;;;20.25;14.75;;;17.00;99.90;;;;;;5053479;28;20091;-61
2023/06/17 04:47:46;;;;;;;20.38;14.77;;;16.90;99.90;;;;;;5030903;28;20510;-61
2023/06/17 04:50:16;;;;;;;20.38;15.90;;;16.90;99.90;;;;;;5055928;28;20033;-61
2023/06/17 04:52:50;;;;;;;25.48;15.07;;;16.90;99.90;;;;;;5055859;28;20112;-60
2023/06/17 04:55:18;;;;;;;20.60;15.45;;;16.90;99.90;;;;;;5055743;28;20089;-61
2023/06/17 04:57:44;;;;;;;18.30;11.55;;;16.80;99.90;;;;;;5055454;28;20044;-61
2023/06/17 05:00:12;;;;;;;11.13;8.38;;;16.70;99.90;;;;;;5054752;28;20041;-61
2023/06/17 05:02:38;;;;;;;21.15;14.88;;;16.80;99.90;;;;;;5037530;28;20056;-61
2023/06/17 05:05:07;;;;;;;23.45;15.70;;;16.80;99.90;;;;;;5054945;28;20044;-61
2023/06/17 05:07:33;;;;;;;18.10;15.57;;;17.00;99.90;;;;;;5055518;28;20123;-61
2023/06/17 05:10:00;;;;;;;23.13;15.73;;;16.90;99.90;;;;;;5055640;28;20699;-61
2023/06/17 05:12:26;;;;;;;18.48;14.35;;;17.00;99.90;;;;;;5055115;28;20041;-60
2023/06/17 05:14:52;;;;;;;24.48;16.08;;;17.00;99.90;;;;;;5055621;28;20120;-61
2023/06/17 05:17:18;;;;;;;22.05;14.70;;;17.00;99.90;;;;;;5054461;28;20075;-61
2023/06/17 05:19:43;;;;;;;21.25;18.00;;;17.00;99.90;;;;;;5055259;28;20049;-61
2023/06/17 05:22:09;;;;;;;21.60;15.07;;;16.90;99.90;;;;;;5055289;28;20037;-61
2023/06/17 05:24:35;;;;;;;25.58;19.13;;;16.90;99.90;;;;;;5054925;28;20380;-60
2023/06/17 05:27:00;;;;;;;22.83;19.40;;;16.90;99.90;;;;;;5054054;28;20040;-63
2023/06/17 05:29:26;;;;;;;29.20;21.00;;;16.80;99.90;;;;;;5054690;28;20041;-61
2023/06/17 05:31:52;;;;;;;21.23;15.93;;;16.80;99.90;;;;;;5055472;28;20118;-61
2023/06/17 05:34:17;;;;;;;25.27;19.58;;;16.80;99.90;;;;;;5053977;28;20115;-61
2023/06/17 05:36:43;;;;;;;29.00;18.00;;;16.80;99.90;;;;;;5054784;28;20036;-61
2023/06/17 05:39:09;;;;;;;24.27;18.35;;;16.90;99.90;;;;;;5055480;28;20048;-61
2023/06/17 05:41:34;;;;;;;23.65;17.35;;;16.90;99.90;;;;;;5055024;28;20041;-61
2023/06/17 05:44:00;;;;;;;25.40;17.77;;;16.90;99.90;;;;;;5054966;28;20045;-61
2023/06/17 05:46:26;;;;;;;21.75;17.92;;;17.00;99.90;;;;;;5054855;28;20399;-60
2023/06/17 05:48:51;;;;;;;24.83;18.17;;;16.80;99.90;;;;;;5054892;28;20171;-61
2023/06/17 05:51:17;;;;;;;27.10;18.08;;;16.90;99.90;;;;;;5018971;28;20083;-60
2023/06/17 05:53:43;;;;;;;24.63;18.15;;;16.90;99.90;;;;;;5036503;28;20041;-61
2023/06/17 05:56:09;;;;;;;19.70;14.80;;;17.00;99.90;;;;;;5054859;28;20387;-61
2023/06/17 05:58:36;;;;;;;18.60;14.93;;;17.10;99.90;;;;;;5036512;28;20045;-61
2023/06/17 06:01:01;;;;;;;25.45;17.02;;;17.10;99.90;;;;;;5054856;28;20037;-61
2023/06/17 06:03:27;;;;;;;23.40;16.40;;;17.00;99.90;;;;;;5054678;28;20037;-61
2023/06/17 06:05:53;;;;;;;24.65;16.45;;;17.10;99.90;;;;;;5054589;28;20368;-61
2023/06/17 06:08:19;;;;;;;23.80;16.05;;;17.00;99.90;;;;;;5053249;28;20029;-61
2023/06/17 06:10:44;;;;;;;23.10;15.98;;;17.00;99.90;;;;;;5054236;28;20060;-60
2023/06/17 06:13:10;;;;;;;20.08;14.95;;;17.10;99.90;;;;;;5036278;28;20041;-61
2023/06/17 06:15:36;;;;;;;21.90;15.50;;;17.10;99.90;;;;;;5054139;28;20088;-61
2023/06/17 06:18:02;;;;;;;26.83;15.68;;;17.10;99.90;;;;;;5054511;28;20146;-61
2023/06/17 06:20:28;;;;;;;19.35;13.57;;;17.20;99.90;;;;;;5036456;28;20095;-61
2023/06/17 06:22:54;;;;;;;19.25;13.45;;;17.30;99.90;;;;;;5053944;28;20136;-61
2023/06/17 06:25:20;;;;;;;14.20;12.15;;;17.20;99.90;;;;;;5053231;28;20116;-58
2023/06/17 06:27:47;;;;;;;19.38;14.00;;;17.30;99.90;;;;;;5053125;28;20120;-58
2023/06/17 06:30:13;;;;;;;17.73;13.68;;;17.30;99.90;;;;;;5067691;28;20045;-58
2023/06/17 06:32:39;;;;;;;21.88;14.80;;;17.40;99.90;;;;;;5035050;28;20055;-58
2023/06/17 06:35:05;;;;;;;22.92;16.15;;;17.40;99.90;;;;;;5034984;28;20043;-58
2023/06/17 06:37:31;;;;;;;15.18;12.90;;;17.40;99.90;;;;;;5052674;28;20040;-58
2023/06/17 06:39:56;;;;;;;20.60;16.48;;;17.30;99.90;;;;;;5034954;28;20730;-58
2023/06/17 06:42:22;;;;;;;21.33;15.98;;;17.40;99.90;;;;;;5047022;28;20037;-57
2023/06/17 06:44:49;;;;;;;21.52;16.00;;;17.40;99.90;;;;;;5032973;28;20047;-58
2023/06/17 06:47:14;;;;;;;22.08;15.60;;;17.40;99.90;;;;;;5052976;28;20036;-58
2023/06/17 06:49:40;;;;;;;18.55;15.82;;;17.40;99.90;;;;;;5052315;28;20397;-58
2023/06/17 06:52:06;;;;;;;21.92;16.35;;;17.50;99.90;;;;;;5052773;28;20029;-58
2023/06/17 06:54:31;;;;;;;17.95;13.77;;;17.50;99.90;;;;;;5052512;28;20125;-58
2023/06/17 06:56:57;;;;;;;19.75;14.82;;;17.50;99.90;;;;;;5052066;28;20047;-58
2023/06/17 06:59:23;;;;;;;20.92;14.85;;;17.60;99.90;;;;;;5051318;28;20036;-57
2023/06/17 07:01:49;;;;;;;16.48;13.55;;;17.60;99.90;;;;;;5034348;28;20044;-58
2023/06/17 07:04:15;;;;;;;20.45;13.85;;;17.60;99.90;;;;;;5052262;28;20157;-57
2023/06/17 07:06:40;;;;;;;19.70;14.48;;;17.60;99.90;;;;;;5052141;28;20498;-58
2023/06/17 07:09:06;;;;;;;20.80;16.50;;;17.60;99.90;;;;;;5039074;28;20029;-58
2023/06/17 07:11:32;;;;;;;21.40;16.85;;;17.60;99.90;;;;;;5052112;28;20060;-58
2023/06/17 07:13:57;;;;;;;21.15;13.85;;;17.70;99.90;;;;;;5052112;28;20025;-58
2023/06/17 07:16:23;;;;;;;23.48;15.13;;;17.80;99.90;;;;;;5041262;28;20040;-58
2023/06/17 07:18:49;;;;;;;20.00;12.25;;;17.90;99.90;;;;;;5052016;28;20090;-61
2023/06/17 07:21:14;;;;;;;17.05;13.00;;;18.00;99.90;;;;;;5051995;28;20891;-60
2023/06/17 07:23:40;;;;;;;19.55;14.32;;;18.00;99.90;;;;;;5052004;28;20041;-60
2023/06/17 07:26:06;;;;;;;20.20;13.75;;;18.10;99.90;;;;;;5051950;28;20033;-60
2023/06/17 07:28:32;;;;;;;12.88;11.20;;;18.10;99.90;;;;;;5042385;28;20108;-60
2023/06/17 07:30:58;;;;;;;22.35;15.50;;;18.20;99.90;;;;;;5051674;28;20553;-58
2023/06/17 07:33:25;;;;;;;17.40;15.00;;;18.20;99.90;;;;;;5050566;28;20037;-60
2023/06/17 07:35:51;;;;;;;20.85;14.55;;;18.30;99.90;;;;;;5051697;28;20049;-58
2023/06/17 07:38:16;;;;;;;17.27;12.68;;;18.60;99.90;;;;;;5051586;28;20052;-58
2023/06/17 07:40:42;;;;;;;17.33;13.55;;;19.00;99.90;;;;;;5052136;28;20127;-58
2023/06/17 07:43:09;;;;;;;21.00;13.98;;;19.20;99.90;;;;;;5051394;28;20037;-58
2023/06/17 07:45:35;;;;;;;18.00;11.68;;;19.40;99.90;;;;;;5051666;28;20037;-59
2023/06/17 07:48:00;;;;;;;20.30;13.38;;;19.70;99.90;;;;;;5052982;28;20494;-58
2023/06/17 07:50:26;;;;;;;18.45;11.05;;;19.90;99.90;;;;;;5063390;28;20033;-58
2023/06/17 07:52:52;;;;;;;17.80;11.85;;;20.50;99.90;;;;;;5057727;28;20497;-58
2023/06/17 07:55:19;;;;;;;14.18;10.63;;;21.80;99.90;;;;;;5046587;28;20076;-58
2023/06/17 07:57:44;;;;;;;12.73;10.68;;;22.00;99.90;;;;;;5062805;28;20041;-58
2023/06/17 08:00:13;;;;;;;15.00;10.73;;;21.60;99.90;;;;;;5051833;28;20043;-58
2023/06/17 08:02:42;;;;;;;15.27;10.25;;;21.50;99.90;;;;;;5033526;28;20071;-58
2023/06/17 08:05:09;;;;;;;15.15;10.68;;;22.60;99.90;;;;;;5051459;28;20543;-58
2023/06/17 08:07:35;;;;;;;10.85;7.82;;;23.20;99.90;;;;;;5033105;28;20366;-59
2023/06/17 08:10:01;;;;;;;12.48;9.45;;;23.50;99.90;;;;;;5057373;28;20033;-58
2023/06/17 08:12:27;;;;;;;16.25;10.23;;;24.10;99.90;;;;;;5051246;28;20557;-58
2023/06/17 08:14:52;;;;;;;14.82;9.00;;;23.70;99.90;;;;;;5051439;28;20056;-58
2023/06/17 08:17:18;;;;;;;13.70;9.25;;;23.50;99.90;;;;;;5051396;28;20041;-59
2023/06/17 08:19:44;;;;;;;17.88;10.85;;;23.20;99.90;;;;;;5050255;28;20422;-58
2023/06/17 08:22:10;;;;;;;13.00;8.93;;;23.10;99.90;;;;;;5051641;28;20040;-58
2023/06/17 08:24:36;;;;;;;16.40;9.57;;;23.90;99.90;;;;;;5032767;28;20056;-58
2023/06/17 08:27:04;;;;;;;15.18;9.50;;;24.10;99.90;;;;;;5051228;28;20826;-58
2023/06/17 08:29:31;;;;;;;11.77;9.00;;;23.90;99.90;;;;;;5051383;28;20089;-59
2023/06/17 08:31:56;;;;;;;14.57;10.85;;;23.50;99.90;;;;;;5051238;28;20045;-58
2023/06/17 08:34:22;;;;;;;13.25;9.45;;;23.60;99.90;;;;;;5051528;28;20364;-58
2023/06/17 08:36:54;;;;;;;18.05;9.10;;;23.50;99.90;;;;;;5047998;28;20127;-59
2023/06/17 08:39:20;;;;;;;13.93;10.02;;;23.80;99.90;;;;;;5050225;28;20111;-59
2023/06/17 08:41:46;;;;;;;19.67;10.32;;;24.00;99.90;;;;;;5046081;28;20082;-59
2023/06/17 08:44:13;;;;;;;9.73;7.75;;;24.40;99.90;;;;;;5051077;28;20048;-58
2023/06/17 08:46:46;;;;;;;16.83;10.13;;;24.90;99.90;;;;;;5048704;28;20048;-59
2023/06/17 08:49:13;;;;;;;14.88;9.60;;;24.20;99.90;;;;;;5043182;28;20116;-59
2023/06/17 08:51:39;;;;;;;15.15;9.50;;;24.60;99.90;;;;;;5050973;28;20037;-59
2023/06/17 08:54:06;;;;;;;16.83;10.20;;;23.50;99.90;;;;;;5046189;28;20033;-60
2023/06/17 08:56:33;;;;;;;12.55;9.90;;;23.40;99.90;;;;;;5050686;28;20041;-59
2023/06/17 08:58:59;;;;;;;13.02;9.07;;;23.20;99.90;;;;;;5049531;28;20039;-58
2023/06/17 09:01:27;;;;;;;13.40;9.18;;;23.80;99.90;;;;;;5048058;28;20864;-59
2023/06/17 09:03:54;;;;;;;14.52;8.95;;;24.80;99.90;;;;;;5034063;28;20128;-59
2023/06/17 09:06:23;;;;;;;11.60;8.30;;;25.50;99.90;;;;;;5054602;28;20029;-59
2023/06/17 09:08:53;;;;;;;12.38;9.18;;;25.20;99.90;;;;;;5054477;28;20037;-59
2023/06/17 09:11:24;;;;;;;12.40;8.43;;;25.30;99.90;;;;;;5036121;28;20041;-59
2023/06/17 09:13:53;;;;;;;10.93;7.22;;;25.30;99.90;;;;;;5052007;28;20044;-59
2023/06/17 09:16:26;;;;;;;;;;;25.80;99.90;;;;;;5053365;28;20233;-60
2023/06/17 09:18:59;;;;;;;14.02;8.07;;;26.30;99.90;;;;;;5054325;28;19917;-60
2023/06/17 09:21:26;;;;;;;11.73;8.85;;;27.20;99.90;;;;;;5053259;28;20041;-59
2023/06/17 09:23:56;;;;;;;12.23;7.25;;;27.50;99.90;;;;;;5053910;28;20434;-59
2023/06/17 09:26:24;;;;;;;11.85;7.65;;;27.90;99.90;;;;;;5051350;28;20060;-60
2023/06/17 09:28:50;;;;;;;10.95;8.00;;;27.80;99.90;;;;;;5048607;28;20045;-59
2023/06/17 09:31:18;;;;;;;10.52;7.93;;;27.30;99.90;;;;;;5050982;28;20116;-59
2023/06/17 09:33:45;;;;;;;12.98;7.28;;;27.90;99.90;;;;;;5048308;28;20107;-60
2023/06/17 09:36:11;;;;;;;10.95;7.72;;;27.80;99.90;;;;;;5053942;28;20422;-59
2023/06/17 09:38:38;;;;;;;12.00;6.65;;;28.20;99.90;;;;;;5053787;28;20065;-60
2023/06/17 09:41:04;;;;;;;13.30;7.65;;;28.90;99.90;;;;;;5053786;28;20548;-59
2023/06/17 09:43:30;;;;;;;17.55;7.20;;;28.80;99.90;;;;;;5053851;28;20047;-60
2023/06/17 09:46:03;;;;;;;9.88;7.13;;;29.60;99.90;;;;;;5035105;28;20048;-60
2023/06/17 09:48:33;;;;;;;12.15;7.60;;;29.60;99.90;;;;;;5053559;28;20041;-60
2023/06/17 09:50:59;;;;;;;11.25;7.32;;;29.50;99.50;;;;;;5043513;28;20048;-60
2023/06/17 09:53:27;;;;;;;10.43;7.00;;;30.20;99.80;;;;;;5052986;28;20048;-60
2023/06/17 09:55:57;;;;;;;9.63;7.30;;;30.00;99.80;;;;;;5052728;28;20053;-60
2023/06/17 09:58:30;;;;;;;18.05;7.13;;;29.90;99.70;;;;;;5066508;28;20037;-60
2023/06/17 10:01:06;;;;;;;17.45;8.30;;;30.10;99.10;;;;;;5061203;28;20086;-60
2023/06/17 10:03:33;;;;;;;10.40;7.75;;;30.00;99.50;;;;;;5066717;28;20040;-60
2023/06/17 10:06:16;;;;;;;11.25;7.35;;;29.70;99.50;;;;;;5055119;28;20034;-60
2023/06/17 10:08:47;;;;;;;10.30;6.97;;;29.90;98.80;;;;;;5052704;28;20117;-61
2023/06/17 10:11:17;;;;;;;12.98;7.68;;;29.90;98.90;;;;;;5052999;28;20033;-61
2023/06/17 10:13:49;;;;;;;13.45;7.57;;;29.40;98.50;;;;;;5067213;28;20473;-61
2023/06/17 10:16:18;;;;;;;9.23;7.63;;;28.90;99.10;;;;;;5033144;28;20144;-60
2023/06/17 10:18:48;;;;;;;12.32;7.25;;;28.60;99.60;;;;;;5034924;28;20134;-60
2023/06/17 10:21:14;;;;;;;13.00;7.95;;;29.10;99.80;;;;;;5057719;28;20048;-60
2023/06/17 10:23:42;;;;;;;10.82;7.47;;;29.20;99.70;;;;;;5051660;28;20041;-60
2023/06/17 10:26:10;;;;;;;8.50;7.03;;;28.50;99.90;;;;;;5067137;28;20037;-60
2023/06/17 10:29:06;;;;;;;9.05;6.88;;;29.10;99.90;;;;;;5050831;28;20529;-60
2023/06/17 10:31:42;;;;;;;12.55;7.70;;;29.50;99.50;;;;;;5053563;28;20040;-60
2023/06/17 10:34:21;;;;;;;11.32;6.93;;;29.30;99.00;;;;;;5054384;28;20510;-60
2023/06/17 10:36:57;;;;;;;10.60;7.32;;;29.00;99.30;;;;;;5053934;28;20116;-60
2023/06/17 10:39:24;;;;;;;9.23;6.93;;;28.40;99.70;;;;;;5051231;28;20073;-60
2023/06/17 10:41:50;;;;;;;11.15;6.75;;;28.50;99.20;;;;;;5052111;28;20045;-60
2023/06/17 10:44:31;;;;;;;10.60;6.50;;;29.30;99.50;;;;;;5052654;28;20556;-60
2023/06/17 10:46:57;;;;;;;11.15;7.53;;;29.00;99.40;;;;;;5052391;28;20040;-60
2023/06/17 10:49:23;;;;;;;9.50;6.57;;;29.00;99.40;;;;;;5051553;28;20056;-60
2023/06/17 10:51:50;;;;;;;10.20;6.68;;;29.00;99.40;;;;;;5050615;28;20490;-60
2023/06/17 10:54:27;;;;;;;12.27;7.47;;;29.60;99.10;;;;;;5052757;28;20111;-61
2023/06/17 10:56:52;;;;;;;10.20;6.38;;;29.60;98.40;;;;;;5052633;28;20056;-60
2023/06/17 10:59:29;;;;;;;12.40;7.50;;;29.50;99.30;;;;;;5052768;28;20727;-60
2023/06/17 11:02:03;;;;;;;7.55;6.15;;;29.20;98.90;;;;;;5050405;28;20041;-60
2023/06/17 11:04:36;;;;;;;8.20;5.70;;;29.20;99.70;;;;;;5051475;28;20132;-60
2023/06/17 11:07:04;;;;;;;13.35;8.15;;;29.60;99.10;;;;;;5033586;28;20414;-60
2023/06/17 11:09:32;;;;;;;12.27;7.10;;;29.60;99.10;;;;;;5051357;28;20044;-60
2023/06/17 11:12:00;;;;;;;11.50;7.35;;;29.60;99.20;;;;;;5051961;28;20399;-61
2023/06/17 11:14:26;;;;;;;;;;;30.00;99.30;;;;;;5052511;28;20364;-61
2023/06/17 11:16:52;;;;;;;9.82;6.15;;;30.60;99.10;;;;;;5052238;28;19916;-61
2023/06/17 11:19:17;;;;;;;12.02;6.68;;;30.70;98.30;;;;;;5051924;28;20044;-61
2023/06/17 11:21:43;;;;;;;8.25;5.35;;;31.40;97.70;;;;;;5051975;28;20522;-60
2023/06/17 11:24:10;;;;;;;8.25;6.40;;;31.50;97.60;;;;;;5051107;28;20052;-60
2023/06/17 11:26:36;;;;;;;8.77;6.70;;;30.80;97.60;;;;;;5051904;28;20041;-61
2023/06/17 11:29:03;;;;;;;10.27;7.18;;;31.00;97.70;;;;;;5051674;28;20040;-61
2023/06/17 11:31:38;;;;;;;9.85;6.97;;;30.60;98.10;;;;;;5051777;28;20467;-60
2023/06/17 11:34:05;;;;;;;8.05;6.45;;;30.50;98.40;;;;;;5051879;28;20037;-61
2023/06/17 11:36:33;;;;;;;10.35;7.13;;;30.10;97.90;;;;;;5034053;28;20136;-60
2023/06/17 11:38:59;;;;;;;13.73;7.88;;;29.90;97.90;;;;;;5051846;28;20047;-61
2023/06/17 11:41:25;;;;;;;10.70;7.88;;;30.00;98.40;;;;;;5063971;28;20596;-62
2023/06/17 11:43:51;;;;;;;12.93;7.72;;;29.90;98.40;;;;;;5051697;28;20045;-61
2023/06/17 11:46:21;;;;;;;11.95;7.32;;;29.20;98.50;;;;;;5059458;28;20036;-61
2023/06/17 11:48:47;;;;;;;11.70;6.95;;;29.20;99.30;;;;;;5071180;28;20039;-61
2023/06/17 11:51:17;;;;;;;10.65;7.70;;;29.50;99.20;;;;;;5071667;28;20041;-61
2023/06/17 11:53:47;;;;;;;11.07;8.23;;;29.50;99.20;;;;;;5053305;28;20495;-61
2023/06/17 11:56:15;;;;;;;11.23;7.38;;;29.50;99.60;;;;;;5071337;28;20049;-61
2023/06/17 11:58:41;;;;;;;;;;;29.70;99.10;;;;;;5071671;28;20123;-61
2023/06/17 12:01:08;;;;;;;11.27;7.13;;;29.60;98.80;;;;;;5053455;28;19916;-61
2023/06/17 12:03:35;;;;;;;8.35;5.70;;;29.60;98.90;;;;;;5071510;28;20094;-61
2023/06/17 12:06:00;;;;;;;7.40;6.20;;;29.90;98.40;;;;;;5053516;28;20047;-61
2023/06/17 12:08:37;;;;;;;8.30;6.25;;;30.20;98.10;;;;;;5071253;28;20029;-61
2023/06/17 12:11:07;;;;;;;7.63;5.88;;;30.30;98.20;;;;;;5071608;28;20041;-60
2023/06/17 12:13:42;;;;;;;8.75;6.53;;;30.00;97.80;;;;;;5071059;28;20140;-61
2023/06/17 12:16:21;;;;;;;12.25;5.80;;;29.50;98.60;;;;;;5071300;28;20056;-61
2023/06/17 12:18:50;;;;;;;9.02;5.03;;;29.30;98.90;;;;;;5071395;28;20094;-61
2023/06/17 12:21:18;;;;;;;9.07;6.53;;;29.60;98.70;;;;;;5071157;28;20044;-60
2023/06/17 12:23:45;;;;;;;9.23;6.03;;;29.80;98.70;;;;;;5071603;28;20052;-61
2023/06/17 12:26:11;;;;;;;10.32;6.32;;;30.10;98.40;;;;;;5071075;28;20049;-61
2023/06/17 12:28:37;;;;;;;9.45;6.15;;;30.00;98.60;;;;;;5071187;28;20555;-61
2023/06/17 12:31:03;;;;;;;8.52;5.30;;;30.10;98.70;;;;;;5071285;28;20037;-60
2023/06/17 12:33:28;;;;;;;9.93;6.32;;;30.00;98.60;;;;;;5071057;28;20372;-61